Terminal Aerodrome Forecast
Issued by NWS

Home | Current Version | Previous Version | Graphics & Text | Print | Product List | Glossary On
Versions: 1 2 3 4 5 6 7 8 9 10 11 12 13 14 15 16 17 18
000
FTUS43 KMPX 180800 AAA
TAFRWF
TAF AMD
KRWF 180800Z 1808/1906 18004KT 3SM BR SCT003 BKN025
      TEMPO 1808/1810 1/2SM FG BKN001
     FM181000 21005KT 3SM -DZ BR SCT004 BKN025
      TEMPO 1810/1814 1SM BR BKN004
     FM181400 23007KT P6SM SCT025 BKN040
     FM182000 27010KT P6SM VCSH BKN060
     FM190000 29005KT P6SM SCT100=

USA.gov is the U.S. government's official web portal to all federal, state and local government web resources and services.